createdAt,value
2023-01-04T00:01:10.893Z,101473.16
2023-01-04T00:06:31.654Z,101464.66
2023-01-04T00:11:52.795Z,101431.53
2023-01-04T00:17:13.179Z,101420.53
2023-01-04T00:22:34.662Z,101415.38
2023-01-04T00:27:55.032Z,101390.03
2023-01-04T00:33:15.902Z,101374.66
2023-01-04T00:38:37.250Z,101353.47
2023-01-04T00:43:59.776Z,101347.56
2023-01-04T00:49:20.470Z,101321.22
2023-01-04T00:54:41.311Z,101294.91
2023-01-04T01:00:02.007Z,101288.06
2023-01-04T01:05:23.079Z,101280.50
2023-01-04T01:10:43.737Z,101253.34
2023-01-04T01:16:09.531Z,101233.84
2023-01-04T01:21:32.189Z,101234.72
2023-01-04T01:26:52.704Z,101210.16
2023-01-04T01:32:13.202Z,101193.25
2023-01-04T01:37:33.960Z,101196.56
2023-01-04T01:42:55.143Z,101156.69
2023-01-04T01:48:22.896Z,101148.22
2023-01-04T01:53:47.166Z,101122.78
2023-01-04T01:59:11.141Z,101125.31
2023-01-04T02:04:32.831Z,101085.41
2023-01-04T02:09:54.972Z,101069.34
2023-01-04T02:15:15.808Z,101068.50
2023-01-04T02:20:48.714Z,101088.00
2023-01-04T02:26:40.246Z,101028.63
2023-01-04T02:32:05.176Z,101009.97
2023-01-04T02:37:34.632Z,100993.00
2023-01-04T02:43:21.739Z,100983.66
2023-01-04T02:49:01.282Z,100960.75
2023-01-04T02:54:25.253Z,100970.09
2023-01-04T03:00:04.391Z,100922.59
2023-01-04T03:06:02.216Z,100930.22
2023-01-04T03:11:46.801Z,100878.50
2023-01-04T03:17:13.217Z,100854.75
2023-01-04T03:23:19.580Z,100834.38
2023-01-04T03:29:00.229Z,100803.00
2023-01-04T03:34:39.935Z,100788.59
2023-01-04T03:40:47.170Z,100769.91
2023-01-04T03:46:51.227Z,100751.25
2023-01-04T03:52:14.401Z,100723.28
2023-01-04T03:57:36.342Z,100708.00
2023-01-04T04:03:07.368Z,100709.72
2023-01-04T04:08:31.439Z,100684.22
2023-01-04T04:13:52.455Z,100679.09
2023-01-04T04:19:12.973Z,100668.06
2023-01-04T04:24:33.586Z,100651.09
2023-01-04T04:29:54.319Z,100614.53
2023-01-04T04:35:15.173Z,100631.47
2023-01-04T04:40:57.344Z,100613.66
2023-01-04T04:46:17.780Z,100579.69
2023-01-04T04:51:38.574Z,100582.22
2023-01-04T04:56:59.201Z,100575.44
2023-01-04T05:02:19.822Z,100588.13
2023-01-04T05:07:40.554Z,100541.41
2023-01-04T05:13:01.709Z,100540.53
2023-01-04T05:18:22.977Z,100535.44
2023-01-04T05:23:43.556Z,100513.34
2023-01-04T05:29:04.500Z,100509.91
2023-01-04T05:34:24.923Z,100503.06
2023-01-04T05:39:45.654Z,100469.88
2023-01-04T05:45:07.456Z,100447.69
2023-01-04T05:50:28.033Z,100473.06
2023-01-04T05:55:49.384Z,100451.78
2023-01-04T06:01:09.752Z,100433.09
2023-01-04T06:06:30.505Z,100425.38
2023-01-04T06:11:51.344Z,100421.06
2023-01-04T06:17:12.508Z,100415.81
2023-01-04T06:22:33.448Z,100402.13
2023-01-04T06:27:54.105Z,100397.78
2023-01-04T06:33:14.717Z,100371.38
2023-01-04T06:38:35.380Z,100373.88
2023-01-04T06:43:56.077Z,100363.59
2023-01-04T06:49:16.882Z,100355.94
2023-01-04T06:54:37.308Z,100333.00
2023-01-04T06:59:58.232Z,100350.72
2023-01-04T07:05:19.273Z,100330.28
2023-01-04T07:10:40.295Z,100322.47
2023-01-04T07:16:01.208Z,100320.72
2023-01-04T07:21:21.889Z,100312.88
2023-01-04T07:26:42.492Z,100317.03
2023-01-04T07:32:04.957Z,100304.91
2023-01-04T07:37:28.211Z,100309.25
2023-01-04T07:42:57.568Z,100285.44
2023-01-04T07:48:18.136Z,100299.00
2023-01-04T07:53:38.727Z,100295.53
2023-01-04T07:58:59.574Z,100314.97
2023-01-04T08:04:25.275Z,100311.41
2023-01-04T08:09:49.116Z,100317.31
2023-01-04T08:15:09.747Z,100323.25
2023-01-04T08:20:30.505Z,100338.56
2023-01-04T08:25:50.883Z,100331.78
2023-01-04T08:31:17.479Z,100343.63
2023-01-04T08:36:50.375Z,100329.09
2023-01-04T08:42:21.970Z,100332.47
2023-01-04T08:47:45.415Z,100322.25
2023-01-04T08:53:07.178Z,100325.66
2023-01-04T08:58:29.456Z,100331.56
2023-01-04T09:03:49.954Z,100317.91
2023-01-04T09:09:11.082Z,100311.94
2023-01-04T09:14:31.761Z,100325.41
2023-01-04T09:19:52.322Z,100320.19
2023-01-04T09:25:13.830Z,100324.47
2023-01-04T09:30:35.368Z,100316.81
2023-01-04T09:35:56.200Z,100323.50
2023-01-04T09:41:30.370Z,100328.53
2023-01-04T09:46:58.586Z,100302.03
2023-01-04T09:52:44.375Z,100304.56
2023-01-04T09:58:31.311Z,100315.50
2023-01-04T10:03:59.925Z,100313.75
2023-01-04T10:09:21.117Z,100316.28
2023-01-04T10:14:55.553Z,100312.03
2023-01-04T10:21:20.769Z,100321.31
2023-01-04T10:26:19.782Z,100300.91
2023-01-04T10:31:43.720Z,100303.34
2023-01-04T10:37:13.951Z,100287.84
2023-01-04T10:42:42.177Z,100296.38
2023-01-04T10:48:18.790Z,100298.94
2023-01-04T10:53:48.844Z,100281.06
2023-01-04T10:59:26.242Z,100282.72
2023-01-04T11:05:05.150Z,100284.19
2023-01-04T11:10:34.654Z,100274.94
2023-01-04T11:15:55.440Z,100257.09
2023-01-04T11:21:22.110Z,100250.31
2023-01-04T11:26:45.539Z,100253.69
2023-01-04T11:32:17.264Z,100251.94
2023-01-04T11:37:40.302Z,100244.22
2023-01-04T11:43:19.058Z,100235.72
2023-01-04T11:48:42.690Z,100232.28
2023-01-04T11:54:23.512Z,100223.59
2023-01-04T11:59:44.106Z,100225.97
2023-01-04T12:05:21.155Z,100221.44
2023-01-04T12:10:44.642Z,100218.22
2023-01-04T12:16:47.765Z,100209.56
2023-01-04T12:22:40.124Z,100188.53
2023-01-04T12:28:01.005Z,100200.00
2023-01-04T12:33:30.573Z,100206.38
2023-01-04T12:39:29.029Z,100195.00
2023-01-04T12:44:52.253Z,100198.16
2023-01-04T12:50:16.879Z,100195.81
2023-01-04T12:55:43.720Z,100190.38
2023-01-04T13:01:05.163Z,100201.78
2023-01-04T13:14:36.260Z,100202.13
2023-01-04T13:19:57.202Z,100185.97
2023-01-04T13:25:20.156Z,100180.97
2023-01-04T13:30:40.854Z,100180.91
2023-01-04T13:36:04.371Z,100170.63
2023-01-04T13:41:25.407Z,100162.16
2023-01-04T13:46:45.659Z,100158.72
2023-01-04T13:52:50.583Z,100147.69
2023-01-04T13:58:17.740Z,100151.19
2023-01-04T14:03:43.062Z,100153.00
2023-01-04T14:09:16.728Z,100138.84
2023-01-04T14:15:23.348Z,100138.09
2023-01-04T14:20:44.205Z,100132.31
2023-01-04T14:26:04.742Z,100116.94
2023-01-04T14:31:32.768Z,100107.47
2023-01-04T14:37:04.037Z,100129.47
2023-01-04T14:42:26.891Z,100127.94
2023-01-04T14:47:47.514Z,100132.97
2023-01-04T14:53:09.466Z,100121.88
2023-01-04T14:58:30.007Z,100121.00
2023-01-04T15:03:50.601Z,100125.38
2023-01-04T15:09:11.261Z,100122.09
2023-01-04T15:14:32.155Z,100130.47
2023-01-04T15:19:52.483Z,100133.03
2023-01-04T15:25:13.652Z,100118.63
2023-01-04T15:30:34.592Z,100129.75
2023-01-04T15:36:04.007Z,100123.91
2023-01-04T15:41:43.141Z,100079.56
2023-01-04T15:47:03.589Z,100104.31
2023-01-04T15:52:24.145Z,100098.34
2023-01-04T15:57:45.113Z,100140.09
2023-01-04T16:03:05.682Z,100114.44
2023-01-04T16:08:25.990Z,100123.91
2023-01-04T16:13:48.758Z,100123.78
2023-01-04T16:19:09.473Z,100102.53
2023-01-04T16:25:08.880Z,100130.53
2023-01-04T16:30:14.020Z,100124.59
2023-01-04T16:35:34.387Z,100124.75
2023-01-04T16:41:02.149Z,100118.75
2023-01-04T16:46:28.501Z,100120.44
2023-01-04T16:51:48.827Z,100128.84
2023-01-04T16:57:10.401Z,100100.72
2023-01-04T17:02:31.235Z,100137.22
2023-01-04T17:07:52.667Z,100100.69
2023-01-04T17:13:13.048Z,100150.94
2023-01-04T17:18:34.838Z,100113.63
2023-01-04T17:23:57.037Z,100118.66
2023-01-04T17:29:17.529Z,100127.13
2023-01-04T17:34:38.198Z,100123.72
2023-01-04T17:39:58.967Z,100122.00
2023-01-04T17:50:40.712Z,100115.88
2023-01-04T17:56:05.896Z,100108.28
2023-01-04T18:01:27.233Z,100116.75
2023-01-04T18:06:47.681Z,100115.81
2023-01-04T18:12:08.891Z,100102.13
2023-01-04T18:17:29.568Z,100113.25
2023-01-04T18:22:50.221Z,100103.94
2023-01-04T18:28:10.725Z,100091.00
2023-01-04T18:33:31.074Z,100103.03
2023-01-04T18:38:55.272Z,100092.13
2023-01-04T18:44:32.796Z,100098.06
2023-01-04T18:49:54.954Z,100086.16
2023-01-04T18:55:16.762Z,100084.34
2023-01-04T19:00:37.006Z,100088.66
2023-01-04T19:05:57.675Z,100079.34
2023-01-04T19:11:18.472Z,100069.25
2023-01-04T19:16:39.752Z,100076.94
2023-01-04T19:22:00.737Z,100088.22
2023-01-04T19:27:22.078Z,100096.13
2023-01-04T19:32:42.762Z,100085.25
2023-01-04T19:38:03.562Z,100087.88
2023-01-04T19:43:24.167Z,100072.56
2023-01-04T19:48:45.142Z,100069.09
2023-01-04T19:54:05.786Z,100069.78
2023-01-04T19:59:26.572Z,100061.22
2023-01-04T20:04:47.257Z,100055.81
2023-01-04T20:10:13.944Z,100059.94
2023-01-04T20:15:38.991Z,100055.75
2023-01-04T20:20:59.685Z,100064.34
2023-01-04T20:26:20.326Z,100066.97
2023-01-04T20:31:45.613Z,100075.59
2023-01-04T20:37:06.225Z,100125.06
2023-01-04T20:42:45.485Z,100074.84
2023-01-04T20:48:06.519Z,100083.34
2023-01-04T20:53:27.001Z,100092.63
2023-01-04T20:58:48.655Z,100070.63
2023-01-04T21:04:09.454Z,100079.69
2023-01-04T21:09:30.235Z,100080.59
2023-01-04T21:14:50.798Z,100101.22
2023-01-04T21:20:11.606Z,100124.50
2023-01-04T21:25:32.263Z,100130.78
2023-01-04T21:30:52.900Z,100126.88
2023-01-04T21:36:19.497Z,100135.66
2023-01-04T21:41:47.499Z,100151.34
2023-01-04T21:47:08.605Z,100143.84
2023-01-04T21:52:29.235Z,100142.13
2023-01-04T21:57:50.160Z,100167.78
2023-01-04T22:03:11.729Z,100181.38
2023-01-04T22:08:32.886Z,100202.72
2023-01-04T22:13:53.242Z,100184.13
2023-01-04T22:19:14.938Z,100206.22
2023-01-04T22:24:38.115Z,100189.97
2023-01-04T22:29:59.026Z,100215.69
2023-01-04T22:35:19.688Z,100206.22
2023-01-04T22:40:41.304Z,100235.91
2023-01-04T22:46:04.209Z,100215.44
2023-01-04T22:51:27.517Z,100262.09
2023-01-04T22:56:48.376Z,100262.88
2023-01-04T23:02:09.126Z,100291.78
2023-01-04T23:07:29.596Z,100266.25
2023-01-04T23:12:51.195Z,100299.50
2023-01-04T23:18:11.543Z,100284.75
2023-01-04T23:23:33.311Z,100277.88
2023-01-04T23:28:54.143Z,100309.41
2023-01-04T23:34:15.025Z,100306.00
2023-01-04T23:39:35.510Z,100310.22
2023-01-04T23:44:56.163Z,100328.97
2023-01-04T23:50:17.174Z,100317.88
2023-01-04T23:55:37.770Z,100303.34
